This is the latest recevied weather packets stored in our database for station/object KN4DS-3. If no packets are shown the sender has not sent any weather packets the latest 1 day(s).
| Time | Temp. | Humidity | Pressure | Rain* | Wind** | Luminosity | Snow |
|---|---|---|---|---|---|---|---|
| 1778034304 | 18.33° C | 67% | 1015 hPa | 0 mm | - | - | - |
| 1778034005 | 18.33° C | 66% | 1015.1 hPa | 0 mm | - | - | - |
| 1778033405 | 18.89° C | 65% | 1014.8 hPa | 0 mm | - | - | - |
| 1778032205 | 19.44° C | 62% | 1014.9 hPa | 0 mm | - | - | - |
| 1778030405 | 21.11° C | 55% | 1014.8 hPa | 0 mm | - | - | - |
| 1778027704 | 23.33° C | 46% | 1014.5 hPa | 0 mm | - | - | - |
| 1778025304 | 25.56° C | 39% | 1014.4 hPa | 0 mm | - | - | - |
| 1778025005 | 25.56° C | 38% | 1014.3 hPa | 0 mm | - | - | - |
| 1778024105 | 26.11° C | 37% | 1014.2 hPa | 0 mm | - | - | - |
| 1778023805 | 26.11° C | 35% | 1014.1 hPa | 0 mm | - | - | - |
| 1778023205 | 26.67° C | 35% | 1014.1 hPa | 0 mm | - | - | - |
| 1778022305 | 26.67° C | 36% | 1013.8 hPa | 0 mm | - | - | - |
| 1778021704 | 26.67° C | 37% | 1013.8 hPa | 0 mm | - | - | - |
| 1778021405 | 27.22° C | 38% | 1013.7 hPa | 0 mm | - | - | - |
| 1778020505 | 27.22° C | 36% | 1013.8 hPa | 0 mm | - | - | - |
| 1778017205 | 27.78° C | 38% | 1014.3 hPa | 0 mm | - | - | - |
| 1778016304 | 27.78° C | 38% | 1014.3 hPa | 0 mm | - | - | - |
| 1778013605 | 28.33° C | 38% | 1014.3 hPa | 0 mm | - | - | - |
| 1778011504 | 28.89° C | 38% | 1014.7 hPa | 0 mm | - | - | - |
| 1778007604 | 28.33° C | 39% | 1015.5 hPa | 0 mm | - | - | - |
| 1778006105 | 28.89° C | 36% | 1016.4 hPa | 0 mm | - | - | - |
| 1778005805 | 28.33° C | 37% | 1016.3 hPa | 0 mm | - | - | - |
| 1778004605 | 27.78° C | 39% | 1016.3 hPa | 0 mm | - | - | - |
| 1778002505 | 27.78° C | 38% | 1016.6 hPa | 0 mm | - | - | - |
| 1778001904 | 27.22° C | 39% | 1016.7 hPa | 0 mm | - | - | - |
* Rain latest hour (hover to see other rain measurements)
** Current wind speed in m/s (hover to see current wind gust speed)